createdAt,value
2019-04-29T00:02:37.855Z,62.80
2019-04-29T00:05:28.333Z,60.91
2019-04-29T00:08:18.703Z,60.21
2019-04-29T00:11:09.035Z,63.64
2019-04-29T00:13:59.399Z,65.18
2019-04-29T00:17:13.083Z,66.62
2019-04-29T00:20:19.089Z,66.81
2019-04-29T00:23:09.052Z,69.96
2019-04-29T00:25:59.411Z,73.28
2019-04-29T00:28:50.465Z,75.79
2019-04-29T00:31:40.896Z,78.24
2019-04-29T00:34:31.154Z,77.16
2019-04-29T00:37:40.326Z,76.08
2019-04-29T00:40:48.034Z,76.03
2019-04-29T00:43:49.350Z,76.71
2019-04-29T00:46:39.836Z,76.83
2019-04-29T00:49:30.704Z,76.44
2019-04-29T00:52:21.257Z,76.68
2019-04-29T00:55:14.385Z,76.86
2019-04-29T00:58:04.559Z,71.38
2019-04-29T01:00:55.074Z,70.88
2019-04-29T01:03:45.232Z,75.77
2019-04-29T01:06:35.531Z,77.13
2019-04-29T01:09:26.410Z,80.31
2019-04-29T01:12:16.432Z,81.68
2019-04-29T01:15:07.197Z,83.29
2019-04-29T01:17:57.663Z,84.59
2019-04-29T01:20:47.678Z,86.17
2019-04-29T01:23:38.004Z,86.72
2019-04-29T01:26:48.594Z,86.91
2019-04-29T01:29:38.550Z,87.73
2019-04-29T01:32:28.841Z,88.35
2019-04-29T01:35:19.089Z,88.77
2019-04-29T01:38:09.411Z,88.77
2019-04-29T01:41:08.650Z,90.08
2019-04-29T01:43:59.700Z,91.07
2019-04-29T01:46:50.237Z,91.58
2019-04-29T01:49:40.531Z,91.74
2019-04-29T01:52:31.146Z,92.31
2019-04-29T01:55:21.532Z,92.09
2019-04-29T01:58:11.620Z,93.24
2019-04-29T02:01:01.841Z,93.38
2019-04-29T02:03:52.105Z,93.67
2019-04-29T02:06:42.174Z,95.07
2019-04-29T02:09:43.961Z,95.15
2019-04-29T02:12:34.558Z,95.00
2019-04-29T02:15:25.158Z,95.92
2019-04-29T02:18:15.603Z,96.10
2019-04-29T02:21:05.636Z,96.34
2019-04-29T02:24:10.624Z,96.58
2019-04-29T02:27:01.107Z,97.57
2019-04-29T02:29:52.374Z,96.96
2019-04-29T02:32:42.467Z,96.55
2019-04-29T02:35:32.375Z,96.66
2019-04-29T02:38:35.946Z,95.77
2019-04-29T02:41:47.796Z,95.51
2019-04-29T02:44:37.722Z,94.66
2019-04-29T02:47:29.117Z,93.53
2019-04-29T02:50:21.799Z,93.84
2019-04-29T02:53:12.042Z,93.88
2019-04-29T02:56:02.953Z,94.16
2019-04-29T02:59:01.310Z,93.88
2019-04-29T03:02:10.642Z,92.95
2019-04-29T03:05:28.946Z,92.76
2019-04-29T03:08:19.335Z,92.90
2019-04-29T03:11:09.694Z,93.16
2019-04-29T03:14:00.237Z,92.61
2019-04-29T03:16:50.543Z,92.94
2019-04-29T03:19:59.713Z,92.56
2019-04-29T03:22:49.873Z,93.01
2019-04-29T03:25:40.239Z,93.89
2019-04-29T03:28:30.275Z,94.07
2019-04-29T03:31:20.752Z,93.85
2019-04-29T03:34:10.714Z,93.49
2019-04-29T03:37:01.223Z,94.82
2019-04-29T03:39:51.477Z,94.93
2019-04-29T03:42:41.607Z,95.88
2019-04-29T03:45:32.050Z,96.22
2019-04-29T03:48:22.675Z,95.47
2019-04-29T03:51:12.700Z,95.37
2019-04-29T03:54:03.041Z,94.62
2019-04-29T03:56:53.401Z,92.80
2019-04-29T03:59:43.952Z,90.80
2019-04-29T04:02:53.011Z,88.21
2019-04-29T04:06:08.018Z,85.00
2019-04-29T04:09:19.643Z,82.45
2019-04-29T04:12:09.577Z,75.46
2019-04-29T04:14:59.892Z,67.13
2019-04-29T04:18:02.027Z,59.34
2019-04-29T04:20:51.951Z,54.76
2019-04-29T04:23:42.048Z,51.84
2019-04-29T04:26:32.259Z,51.58
2019-04-29T04:29:22.905Z,49.85
2019-04-29T04:32:13.183Z,51.14
2019-04-29T04:35:03.509Z,50.10
2019-04-29T04:37:53.847Z,50.31
2019-04-29T04:41:09.569Z,48.12
2019-04-29T04:43:59.705Z,46.45
2019-04-29T04:46:49.802Z,44.87
2019-04-29T04:49:40.170Z,44.59
2019-04-29T04:52:31.064Z,41.14
2019-04-29T04:55:23.732Z,37.73
2019-04-29T04:58:15.698Z,35.85
2019-04-29T05:01:06.539Z,34.05
2019-04-29T05:03:57.483Z,32.99
2019-04-29T05:06:48.441Z,31.58
2019-04-29T05:09:39.760Z,30.87
2019-04-29T05:12:30.855Z,33.28
2019-04-29T05:15:21.872Z,35.97
2019-04-29T05:18:12.514Z,38.62
2019-04-29T05:21:03.042Z,38.96
2019-04-29T05:23:53.999Z,39.27
2019-04-29T05:26:44.840Z,36.44
2019-04-29T05:29:35.649Z,35.18
2019-04-29T05:32:26.629Z,34.47
2019-04-29T05:35:20.740Z,30.96
2019-04-29T05:38:25.098Z,29.23
2019-04-29T05:41:16.044Z,27.36
2019-04-29T05:44:18.812Z,26.70
2019-04-29T05:47:12.195Z,24.72
2019-04-29T05:50:41.060Z,24.09
2019-04-29T05:53:41.483Z,23.82
2019-04-29T05:56:32.117Z,23.81
2019-04-29T05:59:23.124Z,22.25
2019-04-29T06:02:14.146Z,23.78
2019-04-29T06:05:05.271Z,22.71
2019-04-29T06:08:00.445Z,21.97
2019-04-29T06:10:48.331Z,21.58
2019-04-29T06:13:39.255Z,22.34
2019-04-29T06:16:29.729Z,22.08
2019-04-29T06:19:20.698Z,22.41
2019-04-29T06:22:11.563Z,22.75
2019-04-29T06:25:02.258Z,20.35
2019-04-29T06:27:56.114Z,22.65
2019-04-29T06:30:50.083Z,19.80
2019-04-29T06:33:41.475Z,17.69
2019-04-29T06:36:32.168Z,16.04
2019-04-29T06:39:22.849Z,16.04
2019-04-29T06:42:15.510Z,16.03
2019-04-29T06:45:06.275Z,16.72
2019-04-29T06:47:56.566Z,15.37
2019-04-29T06:50:49.827Z,15.72
2019-04-29T06:53:40.298Z,15.90
2019-04-29T06:56:30.864Z,14.87
2019-04-29T06:59:21.426Z,14.23
2019-04-29T07:02:14.425Z,13.60
2019-04-29T07:05:04.118Z,13.92
2019-04-29T07:07:54.725Z,13.61
2019-04-29T07:10:45.141Z,13.27
2019-04-29T07:13:35.775Z,12.61
2019-04-29T07:16:28.095Z,13.26
2019-04-29T07:19:22.201Z,12.76
2019-04-29T07:22:10.915Z,12.72
2019-04-29T07:25:01.326Z,12.26
2019-04-29T07:27:52.164Z,12.29
2019-04-29T07:31:00.349Z,14.71
2019-04-29T07:33:35.150Z,21.58
2019-04-29T07:36:25.982Z,21.58
2019-04-29T07:39:17.874Z,24.50
2019-04-29T07:42:08.771Z,25.12
2019-04-29T07:45:17.669Z,25.22
2019-04-29T07:48:08.190Z,26.55
2019-04-29T07:51:03.650Z,28.01
2019-04-29T07:53:51.409Z,29.73
2019-04-29T07:56:43.507Z,30.38
2019-04-29T07:59:38.373Z,30.21
2019-04-29T08:02:27.884Z,30.84
2019-04-29T08:05:18.489Z,32.03
2019-04-29T08:08:09.571Z,33.23
2019-04-29T08:11:00.301Z,34.32
2019-04-29T08:13:51.023Z,34.51
2019-04-29T08:16:41.984Z,36.99
2019-04-29T08:19:32.801Z,39.01
2019-04-29T08:22:27.700Z,40.72
2019-04-29T08:25:16.397Z,40.78
2019-04-29T08:28:07.070Z,40.35
2019-04-29T08:30:58.061Z,39.74
2019-04-29T08:33:49.025Z,38.50
2019-04-29T08:36:40.064Z,37.63
2019-04-29T08:39:31.247Z,38.90
2019-04-29T08:42:25.812Z,38.93
2019-04-29T08:45:47.709Z,37.21
2019-04-29T08:48:38.876Z,34.10
2019-04-29T08:51:30.202Z,35.06
2019-04-29T08:54:21.455Z,34.84
2019-04-29T08:57:12.180Z,33.65
2019-04-29T09:00:02.768Z,31.84
2019-04-29T09:02:53.710Z,31.11
2019-04-29T09:05:46.146Z,29.40
2019-04-29T09:08:37.156Z,28.16
2019-04-29T09:11:27.877Z,27.34
2019-04-29T09:14:18.714Z,29.02
2019-04-29T09:17:20.209Z,33.52
2019-04-29T09:20:01.863Z,38.17
2019-04-29T09:22:57.725Z,41.68
2019-04-29T09:26:08.295Z,45.20
2019-04-29T09:29:03.881Z,50.25
2019-04-29T09:31:52.975Z,53.26
2019-04-29T09:34:44.081Z,49.67
2019-04-29T09:37:35.139Z,51.99
2019-04-29T09:40:27.984Z,52.03
2019-04-29T09:43:46.903Z,56.46
2019-04-29T09:46:37.374Z,59.61
2019-04-29T09:49:27.651Z,59.67
2019-04-29T09:52:17.726Z,60.94
2019-04-29T09:55:08.018Z,61.64
2019-04-29T09:57:58.415Z,61.19
2019-04-29T10:01:13.730Z,61.41
2019-04-29T10:04:08.553Z,60.61
2019-04-29T10:06:59.158Z,65.34
2019-04-29T10:09:57.045Z,67.87
2019-04-29T10:12:41.053Z,63.96
2019-04-29T10:15:42.165Z,64.35
2019-04-29T10:18:45.704Z,63.14
2019-04-29T10:21:36.418Z,62.63
2019-04-29T10:24:26.532Z,64.68
2019-04-29T10:27:16.906Z,65.78
2019-04-29T10:30:07.956Z,66.86
2019-04-29T10:32:58.913Z,61.92
2019-04-29T10:35:49.285Z,60.52
2019-04-29T10:38:40.531Z,62.31
2019-04-29T10:41:40.371Z,65.11
2019-04-29T10:44:38.365Z,66.59
2019-04-29T10:47:59.539Z,61.18
2019-04-29T10:50:52.138Z,60.82
2019-04-29T10:53:41.789Z,56.41
2019-04-29T10:56:35.352Z,63.42
2019-04-29T10:59:35.728Z,62.07
2019-04-29T11:02:49.363Z,63.83
2019-04-29T11:05:59.923Z,59.43
2019-04-29T11:08:46.878Z,57.29
2019-04-29T11:11:37.178Z,51.40
2019-04-29T11:14:27.771Z,61.81
2019-04-29T11:17:18.190Z,61.51
2019-04-29T11:20:11.328Z,64.71
2019-04-29T11:23:16.565Z,57.64
2019-04-29T11:26:27.078Z,58.50
2019-04-29T11:29:17.597Z,42.53
2019-04-29T11:32:16.922Z,34.79
2019-04-29T11:35:37.957Z,41.64
2019-04-29T11:38:28.505Z,32.63
2019-04-29T11:41:20.906Z,32.67
2019-04-29T11:44:11.905Z,27.74
2019-04-29T11:47:02.214Z,29.01
2019-04-29T11:49:59.769Z,28.32
2019-04-29T11:52:50.639Z,31.51
2019-04-29T11:55:46.267Z,30.68
2019-04-29T11:58:50.204Z,28.54
2019-04-29T12:01:51.672Z,29.07
2019-04-29T12:04:46.844Z,31.10
2019-04-29T12:07:37.160Z,30.85
2019-04-29T12:10:27.826Z,30.95
2019-04-29T12:13:35.362Z,30.76
2019-04-29T12:16:29.314Z,30.34
2019-04-29T12:19:26.158Z,31.36
2019-04-29T12:22:28.304Z,29.83
2019-04-29T12:25:09.041Z,30.04
2019-04-29T12:28:02.033Z,29.47
2019-04-29T12:30:54.041Z,29.32
2019-04-29T12:33:53.597Z,30.77
2019-04-29T12:36:55.036Z,41.78
2019-04-29T12:39:53.814Z,46.42
2019-04-29T12:43:16.128Z,44.61
2019-04-29T12:46:14.618Z,48.99
2019-04-29T12:49:08.506Z,49.97
2019-04-29T12:51:57.888Z,46.99
2019-04-29T12:54:48.578Z,37.67
2019-04-29T12:57:38.647Z,31.42
2019-04-29T13:00:31.875Z,41.87
2019-04-29T13:03:41.242Z,49.74
2019-04-29T13:06:53.494Z,54.71
2019-04-29T13:09:44.738Z,49.51
2019-04-29T13:12:35.233Z,48.12
2019-04-29T13:15:43.926Z,51.27
2019-04-29T13:18:48.738Z,52.18
2019-04-29T13:21:39.199Z,57.87
2019-04-29T13:24:28.686Z,57.59
2019-04-29T13:27:20.869Z,64.72
2019-04-29T13:30:16.006Z,55.00
2019-04-29T13:33:05.927Z,52.03
2019-04-29T13:35:56.483Z,52.13
2019-04-29T13:38:46.649Z,49.51
2019-04-29T13:41:55.582Z,54.88
2019-04-29T13:44:29.037Z,56.34
2019-04-29T13:47:50.099Z,52.75
2019-04-29T13:51:04.897Z,49.38
2019-04-29T13:53:59.848Z,51.41
2019-04-29T13:56:56.051Z,45.33
2019-04-29T14:00:01.164Z,47.90
2019-04-29T14:02:59.522Z,49.17
2019-04-29T14:06:03.343Z,50.64
2019-04-29T14:08:41.581Z,32.74
2019-04-29T14:11:32.121Z,31.09
2019-04-29T14:14:22.996Z,32.07
2019-04-29T14:17:25.734Z,30.95
2019-04-29T14:20:10.828Z,29.63
2019-04-29T14:22:59.789Z,29.02
2019-04-29T14:25:50.290Z,29.40
2019-04-29T14:28:40.217Z,29.02
2019-04-29T14:31:32.871Z,29.61
2019-04-29T14:34:30.577Z,27.99
2019-04-29T14:37:24.881Z,29.19
2019-04-29T14:40:12.845Z,28.72
2019-04-29T14:43:28.883Z,28.61
2019-04-29T14:46:39.117Z,28.37
2019-04-29T14:49:35.367Z,28.88
2019-04-29T14:52:25.229Z,28.40
2019-04-29T14:55:19.887Z,28.40
2019-04-29T14:58:10.775Z,27.49
2019-04-29T15:01:29.316Z,28.89
2019-04-29T15:04:22.602Z,27.71
2019-04-29T15:07:12.868Z,26.87
2019-04-29T15:10:03.175Z,27.32
2019-04-29T15:13:06.756Z,28.90
2019-04-29T15:16:16.494Z,27.83
2019-04-29T15:19:24.284Z,27.55
2019-04-29T15:22:15.051Z,28.59
2019-04-29T15:25:07.191Z,28.44
2019-04-29T15:27:57.249Z,27.69
2019-04-29T15:30:47.464Z,28.04
2019-04-29T15:33:37.919Z,28.07
2019-04-29T15:36:30.712Z,28.41
2019-04-29T15:39:20.612Z,28.37
2019-04-29T15:42:10.987Z,29.48
2019-04-29T15:45:01.288Z,29.40
2019-04-29T15:47:51.332Z,27.91
2019-04-29T15:50:41.711Z,27.02
2019-04-29T15:53:33.904Z,27.33
2019-04-29T15:56:28.749Z,26.93
2019-04-29T15:59:16.816Z,26.83
2019-04-29T16:02:08.628Z,27.83
2019-04-29T16:05:18.021Z,29.06
2019-04-29T16:08:29.392Z,29.58
2019-04-29T16:11:35.582Z,30.24
2019-04-29T16:14:25.816Z,29.85
2019-04-29T16:17:20.258Z,30.84
2019-04-29T16:20:07.867Z,31.40
2019-04-29T16:23:00.570Z,30.79
2019-04-29T16:25:52.146Z,30.63
2019-04-29T16:28:42.016Z,31.03
2019-04-29T16:31:32.139Z,30.04
2019-04-29T16:34:22.380Z,31.20
2019-04-29T16:37:18.975Z,30.75
2019-04-29T16:40:03.930Z,30.98
2019-04-29T16:43:11.168Z,31.17
2019-04-29T16:46:17.374Z,31.98
2019-04-29T16:49:07.609Z,32.68
2019-04-29T16:51:58.790Z,33.18
2019-04-29T16:54:49.188Z,33.92
2019-04-29T16:57:39.635Z,33.70
2019-04-29T17:00:32.373Z,34.35
2019-04-29T17:03:22.911Z,34.48
2019-04-29T17:06:13.438Z,35.24
2019-04-29T17:09:23.348Z,34.92
2019-04-29T17:12:13.966Z,34.99
2019-04-29T17:15:17.296Z,35.52
2019-04-29T17:17:57.141Z,35.56
2019-04-29T17:20:47.760Z,35.95
2019-04-29T17:23:38.016Z,35.83
2019-04-29T17:26:35.734Z,36.26
2019-04-29T17:29:49.295Z,36.44
2019-04-29T17:32:48.329Z,36.84
2019-04-29T17:35:42.908Z,38.06
2019-04-29T17:38:30.412Z,38.06
2019-04-29T17:41:20.772Z,39.00
2019-04-29T17:44:29.007Z,39.00
2019-04-29T17:47:42.584Z,39.26
2019-04-29T17:50:56.151Z,40.69
2019-04-29T17:53:51.025Z,40.69
2019-04-29T17:57:15.328Z,41.45
2019-04-29T18:00:08.586Z,41.45
2019-04-29T18:03:18.956Z,41.37
2019-04-29T18:06:17.281Z,41.53
2019-04-29T18:09:31.273Z,42.38
2019-04-29T18:12:24.892Z,42.38
2019-04-29T18:15:19.962Z,42.93
2019-04-29T18:18:17.040Z,42.97
2019-04-29T18:21:32.832Z,41.91
2019-04-29T18:24:55.486Z,41.91
2019-04-29T18:27:49.076Z,41.92
2019-04-29T18:30:38.513Z,42.28
2019-04-29T18:33:30.355Z,42.43
2019-04-29T18:36:26.246Z,42.64
2019-04-29T18:39:20.046Z,42.98
2019-04-29T18:42:08.815Z,42.65
2019-04-29T18:45:00.353Z,43.25
2019-04-29T18:47:51.325Z,44.60
2019-04-29T18:50:41.771Z,46.60
2019-04-29T18:53:32.222Z,47.29
2019-04-29T18:56:22.624Z,47.29
2019-04-29T18:59:12.926Z,48.14
2019-04-29T19:02:07.713Z,51.06
2019-04-29T19:05:19.930Z,52.56
2019-04-29T19:08:14.630Z,54.28
2019-04-29T19:11:05.020Z,55.56
2019-04-29T19:13:58.942Z,59.17
2019-04-29T19:16:52.691Z,59.50
2019-04-29T19:19:40.596Z,60.18
2019-04-29T19:22:31.250Z,57.54
2019-04-29T19:25:21.601Z,60.31
2019-04-29T19:28:15.685Z,61.11
2019-04-29T19:31:07.264Z,61.18
2019-04-29T19:33:57.205Z,60.29
2019-04-29T19:36:50.832Z,60.38
2019-04-29T19:39:39.492Z,60.54
2019-04-29T19:42:35.650Z,63.45
2019-04-29T19:45:21.823Z,68.78
2019-04-29T19:48:12.131Z,72.20
2019-04-29T19:51:18.820Z,76.53
2019-04-29T19:53:55.262Z,79.54
2019-04-29T19:56:45.448Z,82.23
2019-04-29T19:59:36.645Z,83.21
2019-04-29T20:02:27.846Z,82.70
2019-04-29T20:05:38.958Z,81.76
2019-04-29T20:08:43.396Z,77.29
2019-04-29T20:11:18.677Z,78.05
2019-04-29T20:14:18.420Z,75.88
2019-04-29T20:17:30.888Z,72.68
2019-04-29T20:20:39.069Z,72.12
2019-04-29T20:23:29.379Z,71.88
2019-04-29T20:26:28.925Z,75.17
2019-04-29T20:29:11.362Z,76.48
2019-04-29T20:32:01.827Z,75.92
2019-04-29T20:34:52.448Z,75.42
2019-04-29T20:37:43.469Z,75.90
2019-04-29T20:40:37.896Z,75.49
2019-04-29T20:43:29.632Z,76.22
2019-04-29T20:46:18.262Z,76.87
2019-04-29T20:49:08.825Z,76.51
2019-04-29T20:52:13.347Z,76.06
2019-04-29T20:55:05.860Z,76.68
2019-04-29T20:57:55.555Z,76.56
2019-04-29T21:00:46.236Z,77.79
2019-04-29T21:03:36.750Z,77.02
2019-04-29T21:06:28.260Z,78.60
2019-04-29T21:09:22.201Z,80.06
2019-04-29T21:12:34.846Z,81.25
2019-04-29T21:15:36.290Z,81.15
2019-04-29T21:18:27.184Z,79.53
2019-04-29T21:21:17.170Z,80.58
2019-04-29T21:24:14.064Z,81.35
2019-04-29T21:26:59.198Z,81.96
2019-04-29T21:29:49.750Z,82.10
2019-04-29T21:32:40.108Z,83.02
2019-04-29T21:35:38.180Z,87.60
2019-04-29T21:39:06.108Z,88.86
2019-04-29T21:42:05.711Z,89.43
2019-04-29T21:44:58.693Z,90.50
2019-04-29T21:47:53.026Z,89.84
2019-04-29T21:50:39.701Z,84.89
2019-04-29T21:53:31.565Z,68.38
2019-04-29T21:56:21.762Z,57.99
2019-04-29T21:59:12.639Z,54.42
2019-04-29T22:02:06.635Z,53.87
2019-04-29T22:04:56.809Z,54.65
2019-04-29T22:07:47.569Z,54.58
2019-04-29T22:10:37.949Z,55.59
2019-04-29T22:13:30.716Z,56.23
2019-04-29T22:16:19.769Z,56.97
2019-04-29T22:19:10.123Z,54.05
2019-04-29T22:22:01.625Z,51.92
2019-04-29T22:24:51.973Z,49.29
2019-04-29T22:27:42.376Z,48.32
2019-04-29T22:30:32.621Z,48.23
2019-04-29T22:33:22.683Z,48.78
2019-04-29T22:36:14.796Z,49.64
2019-04-29T22:39:06.232Z,47.49
2019-04-29T22:42:15.149Z,48.27
2019-04-29T22:45:05.752Z,49.32
2019-04-29T22:48:11.701Z,49.53
2019-04-29T22:50:47.863Z,47.55
2019-04-29T22:53:40.131Z,48.26
2019-04-29T22:56:30.244Z,47.37
2019-04-29T22:59:20.612Z,52.72
2019-04-29T23:02:10.971Z,52.72
2019-04-29T23:05:00.966Z,55.43
2019-04-29T23:07:52.886Z,58.04
2019-04-29T23:10:42.898Z,61.16
2019-04-29T23:13:33.150Z,65.46
2019-04-29T23:16:23.532Z,65.38
2019-04-29T23:19:17.661Z,64.62
2019-04-29T23:22:22.333Z,64.62
2019-04-29T23:25:12.578Z,66.78
2019-04-29T23:28:03.027Z,64.20
2019-04-29T23:30:53.538Z,62.70
2019-04-29T23:33:43.692Z,57.26
2019-04-29T23:36:33.836Z,58.68
2019-04-29T23:39:24.909Z,58.20
2019-04-29T23:42:16.292Z,58.19
2019-04-29T23:45:06.807Z,59.57
2019-04-29T23:47:56.929Z,58.61
2019-04-29T23:50:49.665Z,58.17
2019-04-29T23:53:38.961Z,57.23
2019-04-29T23:56:31.879Z,58.24
2019-04-29T23:59:26.524Z,58.04
